createdAt,value
2024-02-14T00:00:17.720Z,3.270833
2024-02-14T00:05:17.376Z,3.530093
2024-02-14T00:10:17.401Z,3.651111
2024-02-14T00:15:17.494Z,3.722222
2024-02-14T00:20:17.489Z,3.847222
2024-02-14T00:25:20.319Z,3.974537
2024-02-14T00:30:17.781Z,4.141204
2024-02-14T00:35:17.709Z,4.264444
2024-02-14T00:40:17.501Z,4.388889
2024-02-14T00:45:17.750Z,4.493056
2024-02-14T00:50:17.992Z,4.546667
2024-02-14T00:55:17.804Z,4.627315
2024-02-14T01:00:17.726Z,4.750000
2024-02-14T01:05:17.814Z,4.782051
2024-02-14T01:10:17.440Z,4.831019
2024-02-14T01:15:17.241Z,4.914352
2024-02-14T01:20:17.836Z,4.988426
2024-02-14T01:25:17.790Z,5.041667
2024-02-14T01:30:17.381Z,5.009259
2024-02-14T01:35:17.569Z,4.860000
2024-02-14T01:40:18.123Z,4.728889
2024-02-14T01:45:17.218Z,4.634259
2024-02-14T01:50:17.514Z,4.629630
2024-02-14T01:55:17.685Z,4.580000
2024-02-14T02:00:17.480Z,4.497685
2024-02-14T02:05:17.637Z,4.340000
2024-02-14T02:10:18.005Z,4.256944
2024-02-14T02:15:17.727Z,4.168981
2024-02-14T02:20:17.897Z,4.115556
2024-02-14T02:25:17.731Z,4.217778
2024-02-14T02:30:18.323Z,4.275556
2024-02-14T02:35:17.750Z,4.333333
2024-02-14T02:40:17.807Z,4.497685
2024-02-14T02:45:17.387Z,4.611111
2024-02-14T02:50:17.393Z,4.650463
2024-02-14T02:55:17.203Z,4.680000
2024-02-14T03:00:17.491Z,4.622685
2024-02-14T03:05:17.303Z,4.562500
2024-02-14T03:10:17.937Z,4.594907
2024-02-14T03:15:17.858Z,4.648148
2024-02-14T03:20:18.701Z,4.717593
2024-02-14T03:25:17.666Z,4.752315
2024-02-14T03:30:17.599Z,4.685185
2024-02-14T03:35:17.415Z,4.637778
2024-02-14T03:40:17.282Z,4.513889
2024-02-14T03:45:17.311Z,4.460648
2024-02-14T03:50:17.306Z,4.432870
2024-02-14T03:55:17.431Z,4.337963
2024-02-14T04:00:17.759Z,4.208333
2024-02-14T04:05:17.457Z,4.275463
2024-02-14T04:10:17.418Z,4.381944
2024-02-14T04:15:17.426Z,4.384259
2024-02-14T04:20:17.827Z,4.288889
2024-02-14T04:25:17.277Z,3.949074
2024-02-14T04:30:17.365Z,3.760000
2024-02-14T04:35:17.486Z,3.851852
2024-02-14T04:40:17.734Z,4.022222
2024-02-14T04:45:17.766Z,4.266667
2024-02-14T04:50:17.968Z,4.391204
2024-02-14T04:55:17.526Z,4.509259
2024-02-14T05:00:17.895Z,4.562500
2024-02-14T05:05:17.374Z,4.574074
2024-02-14T05:10:17.466Z,4.706667
2024-02-14T05:15:17.969Z,4.824074
2024-02-14T05:20:17.668Z,4.981481
2024-02-14T05:25:17.383Z,5.118056
2024-02-14T05:30:17.307Z,5.115741
2024-02-14T05:35:17.605Z,5.131944
2024-02-14T05:40:17.317Z,5.106481
2024-02-14T05:45:17.260Z,5.074074
2024-02-14T05:50:17.198Z,5.076389
2024-02-14T05:55:17.684Z,5.186667
2024-02-14T06:00:28.026Z,5.384444
2024-02-14T06:05:17.409Z,5.523148
2024-02-14T06:10:17.726Z,5.642222
2024-02-14T06:15:17.357Z,5.733796
2024-02-14T06:20:17.616Z,5.875556
2024-02-14T06:25:18.172Z,5.995370
2024-02-14T06:30:17.995Z,6.182870
2024-02-14T06:35:17.832Z,6.303241
2024-02-14T06:40:17.746Z,6.400000
2024-02-14T06:45:17.966Z,6.414352
2024-02-14T06:50:17.390Z,6.460648
2024-02-14T06:55:17.497Z,6.509259
2024-02-14T07:00:17.411Z,6.581019
2024-02-14T07:05:17.211Z,6.668889
2024-02-14T07:10:17.180Z,6.756944
2024-02-14T07:15:17.301Z,6.833333
2024-02-14T07:20:17.784Z,6.960648
2024-02-14T07:25:17.173Z,7.092593
2024-02-14T07:30:17.171Z,7.175556
2024-02-14T07:35:17.452Z,7.284722
2024-02-14T07:40:18.662Z,7.430556
2024-02-14T07:45:17.236Z,7.636574
2024-02-14T07:50:17.335Z,7.788889
2024-02-14T07:55:17.230Z,7.931111
2024-02-14T08:00:17.536Z,8.039352
2024-02-14T08:05:17.341Z,8.126667
2024-02-14T08:10:17.180Z,8.196759
2024-02-14T08:15:17.210Z,8.217593
2024-02-14T08:20:17.566Z,8.185185
2024-02-14T08:25:17.313Z,8.203704
2024-02-14T08:30:17.313Z,8.164352
2024-02-14T08:35:17.502Z,8.129630
2024-02-14T08:40:17.648Z,8.122685
2024-02-14T08:45:17.444Z,8.148889
2024-02-14T08:50:17.275Z,8.246667
2024-02-14T08:55:17.511Z,8.706019
2024-02-14T09:00:17.850Z,9.155093
2024-02-14T09:05:17.337Z,9.043981
2024-02-14T09:10:17.339Z,8.928889
2024-02-14T09:15:17.233Z,8.835648
2024-02-14T09:20:17.652Z,8.837963
2024-02-14T09:25:17.514Z,8.949074
2024-02-14T09:30:24.865Z,9.166667
2024-02-14T09:35:17.242Z,9.263889
2024-02-14T09:40:17.853Z,9.153333
2024-02-14T09:45:21.464Z,8.995370
2024-02-14T09:50:18.110Z,9.018519
2024-02-14T09:55:17.998Z,9.069444
2024-02-14T10:00:17.958Z,9.092593
2024-02-14T10:05:18.014Z,9.120370
2024-02-14T10:10:17.786Z,9.122685
2024-02-14T10:15:18.175Z,9.118056
2024-02-14T10:20:17.274Z,9.099537
2024-02-14T10:25:17.155Z,9.040000
2024-02-14T10:30:17.272Z,9.077778
2024-02-14T10:35:17.213Z,9.180556
2024-02-14T10:40:17.389Z,9.259259
2024-02-14T10:45:17.175Z,9.467593
2024-02-14T10:50:17.370Z,9.726667
2024-02-14T10:55:17.818Z,10.215278
2024-02-14T11:00:17.409Z,10.444444
2024-02-14T11:05:17.365Z,10.675926
2024-02-14T11:10:17.736Z,10.988426
2024-02-14T11:15:17.753Z,11.057870
2024-02-14T11:20:17.771Z,10.942130
2024-02-14T11:25:17.804Z,10.786667
2024-02-14T11:30:17.182Z,10.655093
2024-02-14T11:35:17.377Z,10.606481
2024-02-14T11:40:17.749Z,10.672840
2024-02-14T11:45:17.206Z,10.729167
2024-02-14T11:50:17.570Z,10.694444
2024-02-14T11:55:17.456Z,10.715556
2024-02-14T12:00:17.562Z,10.680556
2024-02-14T12:05:17.133Z,10.803241
2024-02-14T12:10:17.447Z,11.008889
2024-02-14T12:15:17.675Z,11.400000
2024-02-14T12:20:17.378Z,11.282222
2024-02-14T12:25:17.132Z,11.015556
2024-02-14T12:30:17.674Z,10.902778
2024-02-14T12:35:17.126Z,10.897778
2024-02-14T12:40:17.169Z,11.060000
2024-02-14T12:45:17.494Z,11.186667
2024-02-14T12:50:17.225Z,11.368056
2024-02-14T12:55:17.631Z,11.175556
2024-02-14T13:00:17.608Z,10.916667
2024-02-14T13:05:17.389Z,11.064444
2024-02-14T13:10:17.456Z,11.815556
2024-02-14T13:15:17.583Z,12.157778
2024-02-14T13:20:17.616Z,11.926667
2024-02-14T13:25:17.222Z,11.791667
2024-02-14T13:30:17.908Z,11.518519
2024-02-14T13:35:17.517Z,11.432870
2024-02-14T13:40:18.125Z,11.282407
2024-02-14T13:45:17.274Z,11.182870
2024-02-14T13:50:17.250Z,11.244444
2024-02-14T13:55:17.282Z,11.328889
2024-02-14T14:00:17.211Z,11.145833
2024-02-14T14:05:18.469Z,10.967593
2024-02-14T14:10:17.062Z,11.006944
2024-02-14T14:15:17.720Z,10.953704
2024-02-14T14:20:17.438Z,10.815556
2024-02-14T14:25:17.576Z,10.944444
2024-02-14T14:30:17.602Z,11.057870
2024-02-14T14:35:17.230Z,11.053241
2024-02-14T14:40:17.181Z,10.942222
2024-02-14T14:45:17.105Z,10.680556
2024-02-14T14:50:17.254Z,10.583333
2024-02-14T14:55:17.270Z,10.483796
2024-02-14T15:00:21.086Z,10.356481
2024-02-14T15:05:17.700Z,10.363426
2024-02-14T15:10:18.207Z,10.326389
2024-02-14T15:15:17.954Z,10.307870
2024-02-14T15:20:17.827Z,10.296296
2024-02-14T15:25:17.962Z,10.217593
2024-02-14T15:30:20.175Z,10.050926
2024-02-14T15:35:19.198Z,9.925926
2024-02-14T15:40:17.472Z,9.842593
2024-02-14T15:45:18.302Z,9.811111
2024-02-14T15:50:17.548Z,9.775463
2024-02-14T15:55:17.069Z,9.706019
2024-02-14T16:00:17.053Z,9.622685
2024-02-14T16:05:17.074Z,9.546296
2024-02-14T16:10:17.111Z,9.342222
2024-02-14T16:15:17.337Z,9.212963
2024-02-14T16:20:20.110Z,9.134259
2024-02-14T16:25:17.263Z,9.111111
2024-02-14T16:30:17.474Z,9.102222
2024-02-14T16:35:17.383Z,9.083333
2024-02-14T16:40:17.138Z,9.111111
2024-02-14T16:45:19.344Z,9.133333
2024-02-14T16:50:17.230Z,9.157407
2024-02-14T16:55:17.940Z,9.157778
2024-02-14T17:00:17.634Z,9.166667
2024-02-14T17:05:17.879Z,9.166667
2024-02-14T17:10:17.468Z,9.211111
2024-02-14T17:15:17.690Z,9.256944
2024-02-14T17:20:17.616Z,9.326667
2024-02-14T17:25:17.521Z,9.377315
2024-02-14T17:30:17.458Z,9.409722
2024-02-14T17:35:17.727Z,9.456019
2024-02-14T17:40:17.181Z,9.484444
2024-02-14T17:45:17.049Z,9.528889
2024-02-14T17:50:17.033Z,9.553241
2024-02-14T17:55:18.596Z,9.535556
2024-02-14T18:00:21.446Z,9.446759
2024-02-14T18:05:20.143Z,9.333333
2024-02-14T18:10:17.742Z,9.195556
2024-02-14T18:15:17.820Z,9.145833
2024-02-14T18:20:17.513Z,9.203704
2024-02-14T18:25:17.777Z,9.268519
2024-02-14T18:30:17.103Z,9.317130
2024-02-14T18:35:17.067Z,9.284722
2024-02-14T18:40:17.252Z,9.297009
2024-02-14T18:45:17.132Z,9.293981
2024-02-14T18:50:17.256Z,9.358796
2024-02-14T18:55:17.175Z,9.465278
2024-02-14T19:00:17.870Z,9.601852
2024-02-14T19:05:17.531Z,9.673611
2024-02-14T19:10:17.818Z,9.671296
2024-02-14T19:15:17.530Z,9.706019
2024-02-14T19:20:17.448Z,9.724444
2024-02-14T19:25:17.551Z,9.745370
2024-02-14T19:30:17.277Z,9.775556
2024-02-14T19:35:17.485Z,9.814815
2024-02-14T19:40:17.137Z,9.795556
2024-02-14T19:45:17.160Z,9.813333
2024-02-14T19:50:17.527Z,9.837778
2024-02-14T19:55:16.918Z,9.905093
2024-02-14T20:00:17.102Z,9.939815
2024-02-14T20:05:17.167Z,9.942308
2024-02-14T20:10:17.091Z,9.946759
2024-02-14T20:15:17.126Z,9.981481
2024-02-14T20:20:17.729Z,9.969907
2024-02-14T20:25:16.919Z,9.939815
2024-02-14T20:30:17.510Z,9.900463
2024-02-14T20:35:17.538Z,9.879630
2024-02-14T20:40:17.160Z,9.880000
2024-02-14T20:45:17.046Z,9.888889
2024-02-14T20:50:17.342Z,9.888889
2024-02-14T20:55:17.435Z,9.900463
2024-02-14T21:00:17.835Z,9.902778
2024-02-14T21:05:17.429Z,9.942222
2024-02-14T21:10:19.878Z,9.895556
2024-02-14T21:15:19.085Z,9.840278
2024-02-14T21:20:17.189Z,9.585648
2024-02-14T21:25:17.902Z,9.342222
2024-02-14T21:30:17.772Z,9.222222
2024-02-14T21:35:17.447Z,9.168981
2024-02-14T21:40:17.127Z,9.215278
2024-02-14T21:45:17.645Z,9.266204
2024-02-14T21:50:17.954Z,9.277778
2024-02-14T21:55:17.929Z,9.254630
2024-02-14T22:00:17.604Z,9.224537
2024-02-14T22:05:18.137Z,9.224537
2024-02-14T22:10:17.350Z,9.219907
2024-02-14T22:15:17.016Z,9.220000
2024-02-14T22:20:17.064Z,9.240741
2024-02-14T22:25:17.458Z,9.300926
2024-02-14T22:30:17.400Z,9.333333
2024-02-14T22:35:17.392Z,9.333333
2024-02-14T22:40:17.261Z,9.331019
2024-02-14T22:45:17.376Z,9.296296
2024-02-14T22:50:17.059Z,9.284444
2024-02-14T22:55:16.949Z,9.273148
2024-02-14T23:00:18.346Z,9.291111
2024-02-14T23:05:17.173Z,9.317130
2024-02-14T23:10:17.042Z,9.317130
2024-02-14T23:15:17.249Z,9.286667
2024-02-14T23:20:17.573Z,9.308889
2024-02-14T23:25:17.277Z,9.344444
2024-02-14T23:30:17.162Z,9.361111
2024-02-14T23:35:17.299Z,9.413333
2024-02-14T23:40:17.492Z,9.446759
2024-02-14T23:45:18.415Z,9.456019
2024-02-14T23:50:17.224Z,9.506667
2024-02-14T23:55:17.172Z,9.553241
